createdAt,value
2022-08-18T00:01:15.958Z,1340.60
2022-08-18T00:15:07.878Z,1347.47
2022-08-18T00:17:36.213Z,1360.97
2022-08-18T00:20:05.856Z,1351.60
2022-08-18T00:22:32.814Z,1356.95
2022-08-18T00:24:59.634Z,1334.43
2022-08-18T00:27:29.070Z,1332.45
2022-08-18T00:29:57.978Z,1355.80
2022-08-18T00:32:33.800Z,1328.95
2022-08-18T00:35:14.225Z,1352.33
2022-08-18T00:37:42.555Z,1362.40
2022-08-18T00:40:12.248Z,1327.63
2022-08-18T00:42:48.111Z,1323.40
2022-08-18T00:45:21.964Z,1349.13
2022-08-18T00:47:48.663Z,1342.20
2022-08-18T00:50:33.542Z,1333.70
2022-08-18T00:53:04.961Z,1345.03
2022-08-18T00:55:33.451Z,1349.32
2022-08-18T00:58:18.987Z,1347.18
2022-08-18T01:00:46.507Z,1356.45
2022-08-18T01:03:16.370Z,1374.93
2022-08-18T01:06:05.799Z,1364.60
2022-08-18T01:08:32.785Z,1364.05
2022-08-18T01:11:02.782Z,1374.78
2022-08-18T01:13:32.932Z,1375.55
2022-08-18T01:16:20.482Z,1369.05
2022-08-18T01:19:05.860Z,1376.07
2022-08-18T01:21:51.657Z,1373.13
2022-08-18T01:24:22.154Z,1371.22
2022-08-18T01:26:52.136Z,1365.40
2022-08-18T01:29:19.730Z,1382.23
2022-08-18T01:31:56.220Z,1359.72
2022-08-18T01:34:25.931Z,1366.95
2022-08-18T01:36:54.119Z,1374.28
2022-08-18T01:41:24.377Z,1380.18
2022-08-18T01:42:09.411Z,1372.53
2022-08-18T01:44:36.481Z,1350.40
2022-08-18T01:47:03.475Z,1388.57
2022-08-18T01:49:30.302Z,1370.30
2022-08-18T01:51:57.041Z,1369.60
2022-08-18T01:54:23.909Z,1361.20
2022-08-18T01:56:52.562Z,1356.33
2022-08-18T01:59:19.547Z,1370.93
2022-08-18T02:01:50.613Z,1382.18
2022-08-18T02:04:35.727Z,1372.82
2022-08-18T02:07:06.250Z,1346.30
2022-08-18T02:09:33.593Z,1376.22
2022-08-18T02:12:01.606Z,1380.65
2022-08-18T02:14:31.100Z,1382.57
2022-08-18T02:17:01.291Z,1368.57
2022-08-18T02:19:33.986Z,1367.20
2022-08-18T02:22:00.855Z,1381.13
2022-08-18T02:24:27.671Z,1353.97
2022-08-18T02:26:54.480Z,1358.20
2022-08-18T02:29:22.630Z,1382.75
2022-08-18T02:31:49.402Z,1362.80
2022-08-18T02:34:17.215Z,1355.65
2022-08-18T02:36:44.252Z,1345.40
2022-08-18T02:39:11.361Z,1341.70
2022-08-18T02:41:38.148Z,1350.50
2022-08-18T02:44:07.304Z,1350.78
2022-08-18T02:46:34.887Z,1357.13
2022-08-18T02:49:02.247Z,1343.43
2022-08-18T02:51:29.055Z,1347.93
2022-08-18T02:53:59.247Z,1330.82
2022-08-18T02:56:41.484Z,1343.78
2022-08-18T02:59:16.418Z,1336.20
2022-08-18T03:01:46.109Z,1352.18
2022-08-18T03:04:16.097Z,1354.40
2022-08-18T03:06:44.395Z,1360.20
2022-08-18T03:09:14.943Z,1357.83
2022-08-18T03:11:43.502Z,1363.05
2022-08-18T03:14:11.804Z,1344.28
2022-08-18T03:16:47.221Z,1344.63
2022-08-18T03:19:22.773Z,1335.70
2022-08-18T03:21:49.656Z,1350.97
2022-08-18T03:24:22.948Z,1335.18
2022-08-18T03:26:52.310Z,1353.43
2022-08-18T03:29:19.590Z,1334.90
2022-08-18T03:31:48.841Z,1357.15
2022-08-18T03:34:19.699Z,1365.13
2022-08-18T03:36:48.169Z,1333.20
2022-08-18T03:39:14.919Z,1356.25
2022-08-18T03:41:58.692Z,1341.45
2022-08-18T03:44:33.844Z,1337.70
2022-08-18T03:47:03.679Z,1358.20
2022-08-18T03:49:33.433Z,1347.10
2022-08-18T03:52:00.873Z,1338.40
2022-08-18T03:54:28.540Z,1328.83
2022-08-18T03:56:55.941Z,1335.80
2022-08-18T03:59:25.033Z,1342.75
2022-08-18T04:06:59.257Z,1325.65
2022-08-18T04:09:29.275Z,1349.00
2022-08-18T04:11:57.369Z,1317.03
2022-08-18T04:14:26.958Z,1336.85
2022-08-18T04:16:53.819Z,1364.72
2022-08-18T04:19:26.264Z,1327.55
2022-08-18T04:21:56.684Z,1372.00
2022-08-18T04:24:24.039Z,1340.72
2022-08-18T04:26:52.134Z,1340.80
2022-08-18T04:29:23.469Z,1339.30
2022-08-18T04:31:51.814Z,1329.50
2022-08-18T04:34:20.567Z,1308.05
2022-08-18T04:36:47.350Z,1337.60
2022-08-18T04:39:14.397Z,1337.40
2022-08-18T04:41:43.354Z,1359.53
2022-08-18T04:52:22.498Z,1355.85
2022-08-18T04:54:51.942Z,1363.35
2022-08-18T04:57:21.054Z,1331.88
2022-08-18T04:59:49.642Z,1349.40
2022-08-18T05:02:18.442Z,1339.10
2022-08-18T05:04:47.168Z,1327.93
2022-08-18T05:07:18.826Z,1362.60
2022-08-18T05:12:14.435Z,1348.90
2022-08-18T05:14:44.458Z,1324.30
2022-08-18T05:17:12.531Z,1340.40
2022-08-18T05:19:42.243Z,1328.30
2022-08-18T05:22:14.159Z,1344.03
2022-08-18T05:24:41.721Z,1324.30
2022-08-18T05:27:08.500Z,1349.57
2022-08-18T05:29:41.397Z,1357.70
2022-08-18T05:32:30.351Z,1332.55
2022-08-18T05:35:13.041Z,1341.22
2022-08-18T05:38:17.276Z,1347.00
2022-08-18T05:40:46.144Z,1326.33
2022-08-18T05:43:15.178Z,1323.75
2022-08-18T05:45:42.459Z,1344.65
2022-08-18T05:48:09.267Z,1320.25
2022-08-18T05:50:37.905Z,1314.22
2022-08-18T05:53:13.331Z,1338.95
2022-08-18T05:56:14.973Z,1334.20
2022-08-18T05:58:49.442Z,1328.63
2022-08-18T06:01:22.259Z,1332.67
2022-08-18T06:03:57.472Z,1348.83
2022-08-18T06:06:29.522Z,1293.75
2022-08-18T06:09:24.499Z,1343.70
2022-08-18T06:12:05.066Z,1336.85
2022-08-18T06:14:31.948Z,1350.47
2022-08-18T06:16:58.798Z,1343.82
2022-08-18T06:19:35.190Z,1338.82
2022-08-18T06:22:10.932Z,1370.53
2022-08-18T06:25:17.998Z,1344.43
2022-08-18T06:28:08.320Z,1378.57
2022-08-18T06:30:40.870Z,1345.60
2022-08-18T06:33:16.504Z,1373.30
2022-08-18T06:35:52.128Z,1374.28
2022-08-18T06:38:45.248Z,1361.28
2022-08-18T06:41:44.474Z,1351.55
2022-08-18T06:44:22.970Z,1373.32
2022-08-18T06:47:04.284Z,1342.57
2022-08-18T06:49:57.801Z,1367.43
2022-08-18T06:52:30.356Z,1374.05
2022-08-18T06:55:00.049Z,1356.10
2022-08-18T06:57:31.133Z,1361.38
2022-08-18T07:00:06.303Z,1334.30
2022-08-18T07:02:51.406Z,1362.82
2022-08-18T07:05:33.234Z,1320.18
2022-08-18T07:08:35.428Z,1307.82
2022-08-18T07:11:21.585Z,1308.80
2022-08-18T07:14:16.509Z,1353.00
2022-08-18T07:16:59.993Z,1359.15
2022-08-18T07:19:30.413Z,1364.60
2022-08-18T07:22:13.429Z,1355.22
2022-08-18T07:24:50.247Z,1341.03
2022-08-18T07:27:45.087Z,1374.50
2022-08-18T07:30:19.389Z,1362.53
2022-08-18T07:32:51.560Z,1340.43
2022-08-18T07:35:28.001Z,1368.57
2022-08-18T07:38:00.611Z,1368.20
2022-08-18T07:40:41.991Z,1383.73
2022-08-18T07:43:39.499Z,1360.35
2022-08-18T07:46:31.703Z,1358.17
2022-08-18T07:48:59.491Z,1374.43
2022-08-18T07:51:37.313Z,1359.75
2022-08-18T07:54:37.740Z,1368.78
2022-08-18T07:57:33.947Z,1357.43
2022-08-18T08:03:31.405Z,1314.43
2022-08-18T08:06:39.438Z,1194.00
2022-08-18T08:09:24.736Z,1046.55
2022-08-18T08:12:20.879Z,1288.10
2022-08-18T08:14:51.972Z,1194.73
2022-08-18T08:17:37.717Z,1149.13
2022-08-18T08:20:14.858Z,1379.03
2022-08-18T08:22:53.661Z,1372.33
2022-08-18T08:25:46.263Z,1354.45
2022-08-18T08:28:28.991Z,1367.88
2022-08-18T08:31:38.167Z,1117.78
2022-08-18T08:34:29.705Z,789.83
2022-08-18T08:37:03.268Z,901.50
2022-08-18T08:39:43.156Z,1332.75
2022-08-18T08:42:31.485Z,1368.32
2022-08-18T08:45:06.837Z,1366.38
2022-08-18T08:47:51.883Z,909.28
2022-08-18T08:50:24.797Z,1301.75
2022-08-18T08:53:13.547Z,1375.38
2022-08-18T08:55:51.686Z,1334.45
2022-08-18T08:58:28.387Z,1365.75
2022-08-18T09:00:56.014Z,1347.45
2022-08-18T09:03:49.649Z,1365.15
2022-08-18T09:06:37.035Z,1363.05
2022-08-18T09:09:12.752Z,1273.80
2022-08-18T09:12:11.909Z,1366.20
2022-08-18T09:15:16.705Z,1354.47
2022-08-18T09:18:05.443Z,1379.05
2022-08-18T09:20:58.320Z,1357.80
2022-08-18T09:23:28.630Z,1366.72
2022-08-18T09:26:00.806Z,1271.85
2022-08-18T09:28:30.253Z,1372.68
2022-08-18T09:31:08.521Z,1361.63
2022-08-18T09:33:44.445Z,1358.93
2022-08-18T09:36:29.826Z,1358.38
2022-08-18T09:39:27.195Z,1345.25
2022-08-18T09:42:11.985Z,1346.13
2022-08-18T09:44:42.767Z,1353.65
2022-08-18T09:47:10.193Z,1376.20
2022-08-18T09:49:47.814Z,1387.15
2022-08-18T09:52:33.357Z,1359.90
2022-08-18T09:55:27.101Z,1381.05
2022-08-18T09:58:41.282Z,1363.80
2022-08-18T10:01:22.097Z,1359.63
2022-08-18T10:04:14.368Z,1336.25
2022-08-18T10:06:48.752Z,1348.43
2022-08-18T10:09:36.023Z,1362.70
2022-08-18T10:12:16.345Z,831.65
2022-08-18T10:15:33.711Z,900.72
2022-08-18T10:18:11.443Z,651.85
2022-08-18T10:21:03.573Z,310.88
2022-08-18T10:24:08.098Z,212.05
2022-08-18T10:26:54.663Z,99.15
2022-08-18T10:29:28.551Z,166.50
2022-08-18T10:32:01.443Z,152.90
2022-08-18T10:34:52.151Z,414.00
2022-08-18T10:37:38.297Z,591.63
2022-08-18T10:40:21.318Z,660.90
2022-08-18T10:43:01.390Z,1379.50
2022-08-18T10:46:05.974Z,1344.45
2022-08-18T10:48:34.722Z,1229.78
2022-08-18T10:51:07.670Z,1032.47
2022-08-18T10:54:04.333Z,1258.78
2022-08-18T10:56:43.649Z,1076.60
2022-08-18T11:00:00.222Z,1019.45
2022-08-18T11:03:01.929Z,1171.22
2022-08-18T11:05:33.026Z,1371.22
2022-08-18T11:08:04.772Z,1031.07
2022-08-18T11:11:15.093Z,540.95
2022-08-18T11:13:56.096Z,613.57
2022-08-18T11:16:36.347Z,516.00
2022-08-18T11:19:14.704Z,611.35
2022-08-18T11:21:51.730Z,1027.63
2022-08-18T11:24:35.716Z,635.97
2022-08-18T11:27:16.156Z,1234.60
2022-08-18T11:29:43.856Z,1379.53
2022-08-18T11:32:22.557Z,1343.33
2022-08-18T11:35:00.317Z,1282.70
2022-08-18T11:37:49.667Z,1353.10
2022-08-18T11:43:41.539Z,1012.88
2022-08-18T11:46:28.075Z,1084.85
2022-08-18T11:48:57.815Z,1361.20
2022-08-18T11:51:28.489Z,1240.32
2022-08-18T11:54:00.395Z,1204.93
2022-08-18T11:56:38.006Z,791.03
2022-08-18T11:59:52.458Z,845.42
2022-08-18T12:02:21.243Z,671.33
2022-08-18T12:04:57.855Z,349.25
2022-08-18T12:07:35.312Z,1205.07
2022-08-18T12:10:25.878Z,442.40
2022-08-18T12:12:56.094Z,935.70
2022-08-18T12:15:44.420Z,838.38
2022-08-18T12:18:26.636Z,1076.97
2022-08-18T12:21:02.705Z,760.63
2022-08-18T12:23:38.395Z,518.65
2022-08-18T12:26:05.594Z,700.10
2022-08-18T12:28:52.336Z,1213.35
2022-08-18T12:31:19.228Z,733.17
2022-08-18T12:33:59.927Z,862.55
2022-08-18T12:36:29.850Z,858.58
2022-08-18T12:38:57.200Z,756.70
2022-08-18T12:41:24.443Z,641.38
2022-08-18T12:43:58.926Z,1298.72
2022-08-18T12:46:27.136Z,952.97
2022-08-18T12:48:54.098Z,1004.15
2022-08-18T12:51:24.975Z,423.95
2022-08-18T12:53:59.946Z,618.92
2022-08-18T12:56:31.567Z,374.58
2022-08-18T12:59:04.415Z,1271.93
2022-08-18T13:01:32.538Z,795.58
2022-08-18T13:06:59.243Z,337.05
2022-08-18T13:09:35.786Z,1334.65
2022-08-18T13:12:18.396Z,1389.85
2022-08-18T13:14:46.960Z,1387.10
2022-08-18T13:17:30.091Z,1347.13
2022-08-18T13:20:03.613Z,1383.47
2022-08-18T13:22:32.577Z,1367.22
2022-08-18T13:25:00.681Z,1399.57
2022-08-18T13:27:30.942Z,1419.97
2022-08-18T13:30:16.819Z,1401.38
2022-08-18T13:32:58.640Z,1373.57
2022-08-18T13:35:29.913Z,1396.03
2022-08-18T13:38:12.348Z,1392.85
2022-08-18T13:40:47.539Z,1404.00
2022-08-18T13:43:17.484Z,1421.50
2022-08-18T13:45:46.891Z,1404.65
2022-08-18T13:48:20.024Z,1414.70
2022-08-18T13:50:47.500Z,1396.03
2022-08-18T13:53:21.779Z,1396.10
2022-08-18T13:55:49.191Z,1417.25
2022-08-18T13:58:20.632Z,1420.05
2022-08-18T14:01:01.909Z,1417.78
2022-08-18T14:03:47.178Z,1430.57
2022-08-18T14:06:15.677Z,1418.45
2022-08-18T14:08:49.632Z,1402.53
2022-08-18T14:11:17.764Z,1398.63
2022-08-18T14:13:44.998Z,1402.28
2022-08-18T14:16:18.504Z,1371.38
2022-08-18T14:19:09.719Z,1429.78
2022-08-18T14:22:03.710Z,1395.65
2022-08-18T14:24:50.547Z,1398.93
2022-08-18T14:27:19.924Z,1388.82
2022-08-18T14:29:49.790Z,1396.10
2022-08-18T14:32:28.647Z,1415.47
2022-08-18T14:35:33.598Z,1388.32
2022-08-18T14:37:48.758Z,1400.68
2022-08-18T14:40:16.497Z,1410.88
2022-08-18T14:42:54.555Z,1355.87
2022-08-18T14:45:28.096Z,1405.97
2022-08-18T14:48:01.788Z,1165.63
2022-08-18T14:50:29.328Z,1376.15
2022-08-18T14:52:57.302Z,1351.90
2022-08-18T14:55:26.814Z,1383.25
2022-08-18T14:57:53.947Z,1392.65
2022-08-18T15:00:22.741Z,1400.43
2022-08-18T15:02:50.256Z,1096.53
2022-08-18T15:05:19.876Z,1417.43
2022-08-18T15:07:52.791Z,1355.53
2022-08-18T15:10:23.339Z,1409.45
2022-08-18T15:12:53.457Z,784.05
2022-08-18T15:15:22.589Z,700.58
2022-08-18T15:17:52.796Z,421.52
2022-08-18T15:20:23.856Z,1158.53
2022-08-18T15:23:17.359Z,745.63
2022-08-18T15:25:46.315Z,1148.30
2022-08-18T15:28:23.751Z,419.83
2022-08-18T15:31:16.626Z,16.80
2022-08-18T15:33:39.646Z,991.67
2022-08-18T15:36:09.798Z,943.60
2022-08-18T15:38:36.958Z,292.17
2022-08-18T15:41:06.150Z,414.80
2022-08-18T15:43:46.065Z,27.67
2022-08-18T15:46:16.743Z,326.92
2022-08-18T15:48:43.949Z,247.80
2022-08-18T15:51:12.181Z,440.63
2022-08-18T15:53:44.842Z,347.50
2022-08-18T15:56:14.434Z,346.02
2022-08-18T15:58:41.279Z,474.73
2022-08-18T16:01:30.643Z,699.55
2022-08-18T16:03:57.594Z,426.08
2022-08-18T16:06:27.864Z,359.17
2022-08-18T16:09:00.813Z,407.35
2022-08-18T16:11:29.254Z,1113.85
2022-08-18T16:13:58.758Z,943.45
2022-08-18T16:16:28.995Z,590.22
2022-08-18T16:19:03.982Z,364.65
2022-08-18T16:21:30.761Z,425.35
2022-08-18T16:23:57.498Z,323.33
2022-08-18T16:26:24.273Z,471.42
2022-08-18T16:28:52.335Z,1112.68
2022-08-18T16:31:26.523Z,561.78
2022-08-18T16:33:54.904Z,474.90
2022-08-18T16:36:25.705Z,839.63
2022-08-18T16:38:53.567Z,539.42
2022-08-18T16:41:21.172Z,833.40
2022-08-18T16:43:48.239Z,936.33
2022-08-18T16:46:25.176Z,1256.05
2022-08-18T16:48:53.141Z,90.60
2022-08-18T16:51:22.722Z,750.17
2022-08-18T16:53:52.936Z,736.73
2022-08-18T16:56:24.461Z,956.57
2022-08-18T16:59:09.850Z,849.97
2022-08-18T17:01:56.842Z,531.63
2022-08-18T17:04:28.939Z,266.02
2022-08-18T17:06:57.238Z,25.90
2022-08-18T17:09:24.791Z,11.37
2022-08-18T17:11:52.878Z,426.40
2022-08-18T17:14:25.136Z,35.63
2022-08-18T17:16:58.462Z,16.83
2022-08-18T17:19:29.498Z,10.10
2022-08-18T17:21:56.223Z,339.90
2022-08-18T17:24:31.106Z,20.50
2022-08-18T17:27:26.497Z,10.80
2022-08-18T17:30:17.365Z,218.30
2022-08-18T17:32:54.369Z,11.20
2022-08-18T17:35:28.895Z,185.85
2022-08-18T17:38:34.234Z,11.43
2022-08-18T17:41:03.089Z,39.13
2022-08-18T17:43:33.646Z,13.52
2022-08-18T17:46:32.840Z,14.95
2022-08-18T17:49:22.474Z,12.10
2022-08-18T17:51:55.336Z,15.40
2022-08-18T17:54:32.275Z,47.55
2022-08-18T17:57:08.591Z,12.13
2022-08-18T17:59:51.982Z,12.30
2022-08-18T18:02:29.334Z,12.10
2022-08-18T18:04:58.037Z,12.80
2022-08-18T18:07:33.820Z,12.25
2022-08-18T18:10:27.574Z,13.43
2022-08-18T18:13:23.859Z,13.25
2022-08-18T18:15:57.546Z,13.55
2022-08-18T18:18:35.491Z,14.02
2022-08-18T18:21:22.163Z,13.82
2022-08-18T18:23:50.428Z,14.10
2022-08-18T18:26:22.858Z,14.90
2022-08-18T18:28:50.608Z,15.20
2022-08-18T18:31:27.780Z,15.40
2022-08-18T18:34:02.715Z,14.68
2022-08-18T18:36:45.103Z,15.43
2022-08-18T18:39:33.322Z,14.20
2022-08-18T18:42:17.454Z,16.08
2022-08-18T18:44:51.996Z,13.80
2022-08-18T18:47:39.956Z,14.00
2022-08-18T18:50:38.715Z,14.48
2022-08-18T18:53:52.535Z,15.10
2022-08-18T18:56:43.312Z,14.80
2022-08-18T18:59:26.796Z,14.57
2022-08-18T19:02:34.885Z,15.07
2022-08-18T19:05:31.099Z,14.60
2022-08-18T19:08:19.724Z,15.60
2022-08-18T19:11:10.063Z,16.92
2022-08-18T19:13:49.439Z,16.45
2022-08-18T19:16:41.606Z,16.23
2022-08-18T19:19:38.335Z,16.58
2022-08-18T19:22:20.427Z,17.73
2022-08-18T19:25:23.399Z,17.40
2022-08-18T19:28:02.415Z,17.58
2022-08-18T19:30:30.204Z,17.58
2022-08-18T19:33:03.114Z,17.55
2022-08-18T19:35:50.187Z,17.30
2022-08-18T19:38:47.955Z,17.58
2022-08-18T19:41:28.963Z,26.58
2022-08-18T19:44:50.902Z,16.80
2022-08-18T19:47:50.314Z,282.75
2022-08-18T19:50:45.463Z,25.63
2022-08-18T19:53:31.597Z,112.45
2022-08-18T19:55:58.364Z,24.83
2022-08-18T19:58:58.856Z,16.17
2022-08-18T20:01:40.073Z,17.57
2022-08-18T20:04:34.155Z,16.80
2022-08-18T20:07:25.319Z,17.67
2022-08-18T20:10:00.972Z,16.33
2022-08-18T20:12:52.178Z,18.08
2022-08-18T20:15:23.103Z,16.42
2022-08-18T20:17:58.738Z,17.48
2022-08-18T20:20:27.989Z,19.05
2022-08-18T20:22:57.713Z,17.08
2022-08-18T20:25:24.452Z,62.90
2022-08-18T20:27:58.900Z,23.48
2022-08-18T20:30:34.291Z,258.63
2022-08-18T20:33:05.512Z,27.65
2022-08-18T20:35:37.545Z,22.60
2022-08-18T20:38:19.970Z,87.80
2022-08-18T20:40:50.226Z,505.65
2022-08-18T20:43:34.518Z,129.40
2022-08-18T20:46:15.647Z,17.27
2022-08-18T20:49:11.552Z,490.05
2022-08-18T20:51:52.347Z,446.88
2022-08-18T20:54:38.002Z,154.75
2022-08-18T20:57:12.730Z,471.73
2022-08-18T20:59:52.986Z,46.35
2022-08-18T21:02:30.824Z,194.85
2022-08-18T21:05:00.308Z,617.00
2022-08-18T21:07:37.743Z,549.67
2022-08-18T21:10:13.450Z,772.42
2022-08-18T21:12:52.033Z,967.63
2022-08-18T21:15:21.986Z,747.00
2022-08-18T21:17:57.577Z,1319.55
2022-08-18T21:20:24.881Z,1389.78
2022-08-18T21:23:11.308Z,1372.78
2022-08-18T21:25:53.344Z,927.22
2022-08-18T21:28:21.662Z,1027.22
2022-08-18T21:31:42.543Z,1234.82
2022-08-18T21:34:04.589Z,942.22
2022-08-18T21:36:32.507Z,1322.97
2022-08-18T21:39:07.349Z,1198.05
2022-08-18T21:41:46.778Z,1385.38
2022-08-18T21:44:22.176Z,1152.82
2022-08-18T21:46:50.176Z,827.60
2022-08-18T21:49:26.619Z,846.10
2022-08-18T21:51:54.313Z,1016.40
2022-08-18T21:54:28.638Z,1282.43
2022-08-18T21:57:20.246Z,709.75
2022-08-18T22:00:25.373Z,579.63
2022-08-18T22:03:11.980Z,543.47
2022-08-18T22:05:58.961Z,1010.70
2022-08-18T22:08:32.696Z,486.20
2022-08-18T22:11:38.304Z,1315.80
2022-08-18T22:14:54.531Z,1076.90
2022-08-18T22:17:30.569Z,1192.40
2022-08-18T22:20:35.766Z,1381.22
2022-08-18T22:23:33.318Z,1062.18
2022-08-18T22:26:13.899Z,1297.32
2022-08-18T22:28:52.495Z,851.22
2022-08-18T22:31:21.417Z,1307.00
2022-08-18T22:33:49.846Z,1345.00
2022-08-18T22:36:27.590Z,1276.22
2022-08-18T22:38:55.190Z,1315.63
2022-08-18T22:41:22.547Z,1358.03
2022-08-18T22:43:52.761Z,1368.90
2022-08-18T22:46:24.428Z,1358.85
2022-08-18T22:48:52.615Z,1347.82
2022-08-18T22:51:22.990Z,1364.07
2022-08-18T22:53:50.143Z,1380.47
2022-08-18T22:56:24.607Z,1365.22
2022-08-18T22:59:03.671Z,1351.13
2022-08-18T23:01:42.460Z,1368.63
2022-08-18T23:04:09.770Z,1379.03
2022-08-18T23:06:36.715Z,1382.32
2022-08-18T23:09:04.561Z,1359.53
2022-08-18T23:11:31.550Z,1355.40
2022-08-18T23:14:02.047Z,1366.93
2022-08-18T23:16:31.578Z,1357.10
2022-08-18T23:19:03.034Z,1375.30
2022-08-18T23:21:34.555Z,1362.82
2022-08-18T23:24:06.698Z,1373.13
2022-08-18T23:26:34.356Z,1364.13
2022-08-18T23:29:01.705Z,1369.57
2022-08-18T23:31:30.229Z,1370.23
2022-08-18T23:33:57.438Z,1378.05
2022-08-18T23:36:24.181Z,1364.00
2022-08-18T23:38:50.924Z,1352.15
2022-08-18T23:41:17.686Z,1357.00
2022-08-18T23:43:46.792Z,1352.22
2022-08-18T23:46:24.082Z,1356.47
2022-08-18T23:48:52.431Z,1339.25
2022-08-18T23:51:36.894Z,1340.90
2022-08-18T23:54:08.179Z,1350.90
2022-08-18T23:56:36.430Z,1332.82
2022-08-18T23:59:06.252Z,1353.90
